| time (UTC) | temp F | wind direction | speed MPH | gust MPH | rain 1hr in | rain 24hr in | rain mn in | humidity % | barometer mb |
| 20260507223051 | 63 | 225 | 7.0 | 11.0 | 0.00 | 0.00 | 0.00 | 34 | |
| 20260507221732 | 64 | 204 | 5.0 | 10.0 | 0.00 | 0.00 | 0.00 | 33 | |
| 20260507215732 | 56 | 288 | 5.0 | 12.0 | 0.00 | 0.00 | 0.00 | 50 | |
| 20260507215051 | 56 | 276 | 6.0 | 20.0 | 0.00 | 0.00 | 0.00 | 52 | |
| 20260507214413 | 56 | 270 | 8.0 | 20.0 | 0.00 | 0.00 | 0.00 | 49 | |
| 20260507213051 | 58 | 264 | 8.0 | 20.0 | 0.00 | 0.00 | 0.00 | 46 | |
| 20260507212411 | 62 | 243 | 9.0 | 15.0 | 0.00 | 0.00 | 0.00 | 38 | |
| 20260507211731 | 62 | 232 | 8.0 | 12.0 | 0.00 | 0.00 | 0.00 | 35 | |
| 20260507211051 | 63 | 235 | 7.0 | 11.0 | 0.00 | 0.00 | 0.00 | 34 | |
| 20260507210411 | 64 | 243 | 6.0 | 9.0 | 0.00 | 0.00 | 0.00 | 32 | |
| 20260507205732 | 65 | 229 | 5.0 | 8.0 | 0.00 | 0.00 | 0.00 | 30 | |
| 20260507203732 | 67 | 223 | 6.0 | 10.0 | 0.00 | 0.00 | 0.00 | 26 | |
| 20260507203051 | 67 | 206 | 5.0 | 9.0 | 0.00 | 0.00 | 0.00 | 29 | |
| 20260507202411 | 66 | 200 | 5.0 | 15.0 | 0.00 | 0.00 | 0.00 | 29 | |
| 20260507201731 | 68 | 209 | 7.0 | 15.0 | 0.00 | 0.00 | 0.00 | 27 | |
| 20260507201051 | 67 | 206 | 6.0 | 10.0 | 0.00 | 0.00 | 0.00 | 29 | |
| 20260507200411 | 67 | 226 | 6.0 | 10.0 | 0.00 | 0.00 | 0.00 | 28 | |
| 20260507195051 | 66 | 173 | 3.0 | 9.0 | 0.00 | 0.00 | 0.00 | 29 | |
| 20260507194411 | 67 | 201 | 5.0 | 9.0 | 0.00 | 0.00 | 0.00 | 28 | |
| 20260507193731 | 66 | 226 | 5.0 | 10.0 | 0.00 | 0.00 | 0.00 | 27 | |
| 20260507193051 | 66 | 232 | 6.0 | 10.0 | 0.00 | 0.00 | 0.00 | 29 | |
| 20260507191731 | 66 | 195 | 5.0 | 11.0 | 0.00 | 0.00 | 0.00 | 32 | |
| 20260507191051 | 66 | 209 | 5.0 | 11.0 | 0.00 | 0.00 | 0.00 | 30 | |
| 20260507190411 | 66 | 187 | 4.0 | 11.0 | 0.00 | 0.00 | 0.00 | 29 | |
| 20260507185731 | 65 | 222 | 6.0 | 12.0 | 0.00 | 0.00 | 0.00 | 32 | |
| 20260507185051 | 63 | 207 | 5.0 | 10.0 | 0.00 | 0.00 | 0.00 | 33 | |
| 20260507184412 | 64 | 231 | 6.0 | 13.0 | 0.00 | 0.00 | 0.00 | 34 | |
| 20260507183731 | 64 | 204 | 6.0 | 13.0 | 0.00 | 0.00 | 0.00 | 32 | |
| 20260507183051 | 65 | 222 | 7.0 | 11.0 | 0.00 | 0.00 | 0.00 | 33 | |
| 20260507182412 | 65 | 220 | 6.0 | 11.0 | 0.00 | 0.00 | 0.00 | 30 | |
| 20260507181731 | 65 | 244 | 6.0 | 11.0 | 0.00 | 0.00 | 0.00 | 32 | |
| 20260507181051 | 64 | 238 | 6.0 | 11.0 | 0.00 | 0.00 | 0.00 | 33 | |
| 20260507180411 | 64 | 195 | 6.0 | 10.0 | 0.00 | 0.00 | 0.00 | 33 | |
| 20260507175731 | 64 | 237 | 5.0 | 12.0 | 0.00 | 0.00 | 0.00 | 33 | |
| 20260507175051 | 63 | 205 | 5.0 | 12.0 | 0.00 | 0.00 | 0.00 | 33 | |
| 20260507174411 | 64 | 198 | 7.0 | 10.0 | 0.00 | 0.00 | 0.00 | 32 | |
| 20260507173731 | 62 | 213 | 6.0 | 10.0 | 0.00 | 0.00 | 0.00 | 33 | |
| 20260507173051 | 61 | 222 | 5.0 | 12.0 | 0.00 | 0.00 | 0.00 | 34 | |
| 20260507171731 | 61 | 188 | 5.0 | 10.0 | 0.00 | 0.00 | 0.00 | 34 | |
| 20260507171051 | 62 | 211 | 5.0 | 11.0 | 0.00 | 0.00 | 0.00 | 34 | |
| 20260507170411 | 62 | 197 | 5.0 | 12.0 | 0.00 | 0.00 | 0.00 | 34 | |
| 20260507165731 | 62 | 227 | 7.0 | 12.0 | 0.00 | 0.00 | 0.00 | 34 | |
| 20260507164411 | 61 | 193 | 6.0 | 11.0 | 0.00 | 0.00 | 0.00 | 36 | |
| 20260507163731 | 62 | 202 | 5.0 | 8.0 | 0.00 | 0.00 | 0.00 | 35 | |
| 20260507163051 | 61 | 235 | 5.0 | 8.0 | 0.00 | 0.00 | 0.00 | 35 | |
| 20260507162411 | 59 | 199 | 3.0 | 8.0 | 0.00 | 0.00 | 0.00 | 37 | |
| 20260507161051 | 57 | 235 | 5.0 | 8.0 | 0.00 | 0.00 | 0.00 | 40 | |
| 20260507160411 | 57 | 236 | 5.0 | 9.0 | 0.00 | 0.00 | 0.00 | 41 | |
| 20260507155731 | 56 | 240 | 4.0 | 8.0 | 0.00 | 0.00 | 0.00 | 44 | |
| 20260507155051 | 56 | 232 | 5.0 | 8.0 | 0.00 | 0.00 | 0.00 | 45 | |
| 20260507154411 | 55 | 235 | 5.0 | 9.0 | 0.00 | 0.00 | 0.00 | 46 | |
| 20260507153051 | 55 | 232 | 4.0 | 6.0 | 0.00 | 0.00 | 0.00 | 46 | |
| 20260507152411 | 56 | 237 | 2.0 | 3.0 | 0.00 | 0.00 | 0.00 | 45 | |
| 20260507151731 | 56 | 312 | 1.0 | 4.0 | 0.00 | 0.00 | 0.00 | 39 | |
| 20260507151051 | 56 | 310 | 2.0 | 7.0 | 0.00 | 0.00 | 0.00 | 40 | |
| 20260507150411 | 56 | 309 | 3.0 | 7.0 | 0.00 | 0.00 | 0.00 | 39 | |
| 20260507145732 | 56 | 309 | 4.0 | 7.0 | 0.00 | 0.00 | 0.00 | 39 | |
| 20260507143051 | 55 | 315 | 6.0 | 10.0 | 0.00 | 0.00 | 0.00 | 42 | |
| 20260507142411 | 53 | 318 | 6.0 | 10.0 | 0.00 | 0.00 | 0.00 | 44 | |
| 20260507141731 | 52 | 319 | 5.0 | 7.0 | 0.00 | 0.00 | 0.00 | 45 | |
| 20260507141051 | 52 | 334 | 5.0 | 8.0 | 0.00 | 0.00 | 0.00 | 46 | |
| 20260507140411 | 51 | 356 | 4.0 | 10.0 | 0.00 | 0.00 | 0.00 | 47 | |
| 20260507135731 | 51 | 351 | 7.0 | 12.0 | 0.00 | 0.00 | 0.00 | 46 | |
| 20260507135051 | 50 | 340 | 8.0 | 12.0 | 0.00 | 0.00 | 0.00 | 48 | |
| 20260507134411 | 50 | 341 | 8.0 | 13.0 | 0.00 | 0.00 | 0.00 | 48 | |
| 20260507133731 | 50 | 349 | 8.0 | 12.0 | 0.00 | 0.00 | 0.00 | 47 | |
| 20260507133051 | 48 | 345 | 9.0 | 13.0 | 0.00 | 0.00 | 0.00 | 50 | |
| 20260507132411 | 48 | 342 | 9.0 | 13.0 | 0.00 | 0.00 | 0.00 | 50 | |
| 20260507131731 | 48 | 332 | 7.0 | 9.0 | 0.00 | 0.00 | 0.00 | 51 | |
| 20260507131050 | 47 | 330 | 6.0 | 8.0 | 0.00 | 0.00 | 0.00 | 53 | |
| 20260507130410 | 47 | 322 | 6.0 | 9.0 | 0.00 | 0.00 | 0.00 | 54 | |
| 20260507125730 | 47 | 323 | 6.0 | 9.0 | 0.00 | 0.00 | 0.00 | 53 | |
| 20260507125050 | 48 | 319 | 5.0 | 8.0 | 0.00 | 0.00 | 0.00 | 52 | |
| 20260507124410 | 49 | 310 | 4.0 | 8.0 | 0.00 | 0.00 | 0.00 | 52 | |
| 20260507123730 | 48 | 308 | 4.0 | 8.0 | 0.00 | 0.00 | 0.00 | 55 | |
| 20260507122410 | 48 | 281 | 4.0 | 7.0 | 0.00 | 0.00 | 0.00 | 61 | |
| 20260507121050 | 48 | 293 | 3.0 | 9.0 | 0.00 | 0.00 | 0.00 | 60 | |
| 20260507120410 | 48 | 279 | 2.0 | 7.0 | 0.00 | 0.00 | 0.00 | 56 | |
| 20260507115730 | 49 | 286 | 2.0 | 6.0 | 0.00 | 0.00 | 0.00 | 52 | |
| 20260507115050 | 48 | 305 | 3.0 | 6.0 | 0.00 | 0.00 | 0.00 | 51 | |
| 20260507114410 | 48 | 278 | 2.0 | 6.0 | 0.00 | 0.00 | 0.00 | 50 | |
| 20260507113730 | 48 | 298 | 3.0 | 5.0 | 0.00 | 0.00 | 0.00 | 49 | |
| 20260507113050 | 48 | 298 | 3.0 | 5.0 | 0.00 | 0.00 | 0.00 | 49 | |
| 20260507110410 | 48 | 280 | 1.0 | 5.0 | 0.00 | 0.00 | 0.00 | 47 | |
| 20260507105730 | 48 | 305 | 3.0 | 6.0 | 0.00 | 0.00 | 0.00 | 47 | |
| 20260507105050 | 48 | 272 | 2.0 | 9.0 | 0.00 | 0.00 | 0.00 | 48 | |
| 20260507103731 | 49 | 338 | 6.0 | 8.0 | 0.00 | 0.00 | 0.00 | 47 | |
| 20260507103051 | 50 | 346 | 6.0 | 8.0 | 0.00 | 0.00 | 0.00 | 47 | |
| 20260507102411 | 51 | 349 | 6.0 | 11.0 | 0.00 | 0.00 | 0.00 | 48 | |
| 20260507101731 | 52 | 315 | 5.0 | 11.0 | 0.00 | 0.00 | 0.00 | 49 | |
| 20260507101051 | 52 | 356 | 3.0 | 6.0 | 0.00 | 0.00 | 0.00 | 47 | |
| 20260507100411 | 52 | 353 | 2.0 | 6.0 | 0.00 | 0.00 | 0.00 | 44 | |
| 20260507095731 | 53 | 311 | 3.0 | 7.0 | 0.00 | 0.00 | 0.00 | 52 | |
| 20260507095051 | 54 | 285 | 3.0 | 11.0 | 0.00 | 0.00 | 0.00 | 54 | |
| 20260507094411 | 54 | 242 | 4.0 | 15.0 | 0.00 | 0.00 | 0.00 | 52 | |
| 20260507093731 | 56 | 241 | 6.0 | 15.0 | 0.00 | 0.00 | 0.00 | 47 | |
| 20260507092411 | 54 | 286 | 5.0 | 10.0 | 0.00 | 0.00 | 0.00 | 45 | |
| 20260507091731 | 54 | 296 | 3.0 | 10.0 | 0.00 | 0.00 | 0.00 | 45 | |
| 20260507091051 | 54 | 305 | 6.0 | 10.0 | 0.00 | 0.00 | 0.00 | 44 | |
| 20260507090411 | 54 | 300 | 5.0 | 10.0 | 0.00 | 0.00 | 0.00 | 45 | |
| 20260507085051 | 54 | 306 | 6.0 | 9.0 | 0.00 | 0.00 | 0.00 | 46 | |
| 20260507083731 | 54 | 315 | 6.0 | 12.0 | 0.00 | 0.00 | 0.00 | 47 | |
| 20260507083051 | 54 | 319 | 7.0 | 12.0 | 0.00 | 0.00 | 0.00 | 47 | |
| 20260507082411 | 53 | 322 | 7.0 | 11.0 | 0.00 | 0.00 | 0.00 | 49 | |
| 20260507081731 | 54 | 331 | 8.0 | 14.0 | 0.00 | 0.00 | 0.00 | 48 | |
| 20260507080411 | 57 | 341 | 11.0 | 18.0 | 0.00 | 0.00 | 0.00 | 44 | |
| 20260507075731 | 57 | 354 | 10.0 | 18.0 | 0.00 | 0.00 | 0.00 | 43 | |
| 20260507075051 | 57 | 301 | 7.0 | 18.0 | 0.00 | 0.00 | 0.00 | 40 | |
| 20260507074411 | 53 | 15 | 5.0 | 10.0 | 0.00 | 0.00 | 0.00 | 51 | |
| 20260507073731 | 55 | 17 | 6.0 | 10.0 | 0.00 | 0.00 | 0.00 | 47 | |
| 20260507073051 | 57 | 270 | 4.0 | 10.0 | 0.00 | 0.00 | 0.00 | 43 | |
| 20260507071051 | 55 | 266 | 4.0 | 9.0 | 0.00 | 0.00 | 0.00 | 49 | |
| 20260507065731 | 55 | 259 | 3.0 | 8.0 | 0.00 | 0.00 | 0.00 | 50 | |
| 20260507065051 | 55 | 267 | 4.0 | 9.0 | 0.00 | 0.00 | 0.00 | 50 | |
| 20260507064411 | 55 | 265 | 4.0 | 9.0 | 0.00 | 0.00 | 0.00 | 50 | |
| 20260507063731 | 55 | 255 | 5.0 | 8.0 | 0.00 | 0.00 | 0.00 | 50 | |
| 20260507063051 | 54 | 254 | 4.0 | 8.0 | 0.00 | 0.00 | 0.00 | 50 | |
| 20260507062411 | 54 | 263 | 4.0 | 8.0 | 0.00 | 0.00 | 0.00 | 51 | |
| 20260507061731 | 54 | 257 | 3.0 | 7.0 | 0.00 | 0.00 | 0.00 | 51 | |
| 20260507061051 | 53 | 240 | 4.0 | 7.0 | 0.00 | 0.00 | 0.00 | 52 | |
| 20260507060411 | 53 | 241 | 4.0 | 7.0 | 0.00 | 0.00 | 0.00 | 54 | |
| 20260507055731 | 53 | 234 | 4.0 | 7.0 | 0.00 | 0.00 | 0.00 | 52 | |
| 20260507054411 | 54 | 243 | 4.0 | 8.0 | 0.00 | 0.00 | 0.00 | 49 | |
| 20260507053731 | 54 | 239 | 5.0 | 8.0 | 0.00 | 0.00 | 0.00 | 49 | |
| 20260507053051 | 55 | 239 | 4.0 | 8.0 | 0.00 | 0.00 | 0.00 | 47 | |
| 20260507052411 | 56 | 237 | 4.0 | 9.0 | 0.00 | 0.00 | 0.00 | 45 | |
| 20260507051731 | 57 | 245 | 4.0 | 10.0 | 0.00 | 0.00 | 0.00 | 42 | |
| 20260507051051 | 58 | 259 | 5.0 | 11.0 | 0.00 | 0.00 | 0.00 | 39 | |
| 20260507050411 | 59 | 265 | 5.0 | 11.0 | 0.00 | 0.00 | 0.00 | 38 | |
| 20260507045731 | 59 | 261 | 6.0 | 11.0 | 0.00 | 0.00 | 0.00 | 37 | |
| 20260507045051 | 59 | 270 | 6.0 | 12.0 | 0.00 | 0.00 | 0.00 | 37 | |
| 20260507044411 | 59 | 267 | 5.0 | 13.0 | 0.00 | 0.00 | 0.00 | 37 | |
| 20260507043731 | 59 | 265 | 6.0 | 13.0 | 0.00 | 0.00 | 0.00 | 37 | |
| 20260507043051 | 59 | 268 | 6.0 | 12.0 | 0.00 | 0.00 | 0.00 | 36 | |
| 20260507041731 | 59 | 255 | 5.0 | 11.0 | 0.00 | 0.00 | 0.00 | 37 | |
| 20260507041051 | 59 | 268 | 6.0 | 11.0 | 0.00 | 0.00 | 0.00 | 36 | |
| 20260507040411 | 59 | 260 | 5.0 | 10.0 | 0.00 | 0.00 | 0.00 | 36 | |
| 20260507035731 | 59 | 264 | 6.0 | 11.0 | 0.00 | 0.00 | 0.00 | 37 | |
| 20260507034411 | 59 | 249 | 6.0 | 9.0 | 0.00 | 0.00 | 0.00 | 38 | |
| 20260507033731 | 59 | 259 | 4.0 | 8.0 | 0.00 | 0.00 | 0.00 | 38 | |
| 20260507033051 | 60 | 260 | 4.0 | 10.0 | 0.00 | 0.00 | 0.00 | 37 | |
| 20260507032411 | 60 | 260 | 5.0 | 10.0 | 0.00 | 0.00 | 0.00 | 36 | |
| 20260507031731 | 60 | 255 | 4.0 | 9.0 | 0.00 | 0.00 | 0.00 | 36 | |
| 20260507031051 | 60 | 249 | 5.0 | 10.0 | 0.00 | 0.00 | 0.00 | 36 | |
| 20260507025731 | 61 | 252 | 4.0 | 10.0 | 0.00 | 0.00 | 0.00 | 35 | |
| 20260507025051 | 61 | 255 | 4.0 | 10.0 | 0.00 | 0.00 | 0.00 | 35 | |
| 20260507024411 | 62 | 250 | 4.0 | 8.0 | 0.00 | 0.00 | 0.00 | 34 | |
| 20260507023731 | 62 | 260 | 4.0 | 9.0 | 0.00 | 0.00 | 0.00 | 34 | |
| 20260507023051 | 62 | 258 | 4.0 | 9.0 | 0.00 | 0.00 | 0.00 | 33 | |
| 20260507022411 | 63 | 256 | 6.0 | 11.0 | 0.00 | 0.00 | 0.00 | 33 | |
| 20260507021731 | 63 | 254 | 5.0 | 11.0 | 0.00 | 0.00 | 0.00 | 32 | |
| 20260507020411 | 64 | 255 | 7.0 | 12.0 | 0.00 | 0.00 | 0.00 | 31 | |
| 20260507015051 | 64 | 257 | 7.0 | 14.0 | 0.00 | 0.00 | 0.00 | 29 | |
| 20260507014411 | 65 | 262 | 6.0 | 16.0 | 0.00 | 0.00 | 0.00 | 29 | |
| 20260507013731 | 65 | 264 | 7.0 | 16.0 | 0.00 | 0.00 | 0.00 | 29 | |
| 20260507012411 | 66 | 264 | 7.0 | 15.0 | 0.00 | 0.00 | 0.00 | 27 | |
| 20260507011731 | 66 | 258 | 7.0 | 18.0 | 0.00 | 0.00 | 0.00 | 27 | |
| 20260507011051 | 66 | 259 | 9.0 | 18.0 | 0.00 | 0.00 | 0.00 | 26 | |
| 20260507010411 | 66 | 267 | 9.0 | 18.0 | 0.00 | 0.00 | 0.00 | 26 | |
| 20260507005731 | 66 | 262 | 8.0 | 18.0 | 0.00 | 0.00 | 0.00 | 25 | |
| 20260507005051 | 67 | 261 | 8.0 | 16.0 | 0.00 | 0.00 | 0.00 | 25 | |
| 20260507004411 | 67 | 271 | 7.0 | 16.0 | 0.00 | 0.00 | 0.00 | 24 | |
| 20260507003731 | 67 | 259 | 8.0 | 19.0 | 0.00 | 0.00 | 0.00 | 24 | |
| 20260507003051 | 67 | 269 | 8.0 | 21.0 | 0.00 | 0.00 | 0.00 | 24 | |
| 20260507002411 | 68 | 270 | 9.0 | 21.0 | 0.00 | 0.00 | 0.00 | 23 | |
| 20260507001731 | 70 | 279 | 6.0 | 16.0 | 0.00 | 0.00 | 0.00 | 21 | |
| 20260507001051 | 70 | 315 | 11.0 | 16.0 | 0.00 | 0.00 | 0.00 | 15 | |
| 20260507000412 | 70 | 304 | 8.0 | 16.0 | 0.00 | 0.00 | 0.00 | 15 | |
| 20260506235731 | 70 | 298 | 7.0 | 17.0 | 0.00 | 0.00 | 0.00 | 15 | |
| 20260506235051 | 70 | 318 | 11.0 | 16.0 | 0.00 | 0.00 | 0.00 | 15 | |
| 20260506233731 | 71 | 272 | 8.0 | 16.0 | 0.00 | 0.00 | 0.00 | 16 | |
| 20260506233051 | 72 | 260 | 5.0 | 13.0 | 0.00 | 0.00 | 0.00 | 16 | |
| 20260506232411 | 72 | 289 | 6.0 | 18.0 | 0.00 | 0.00 | 0.00 | 16 | |
| 20260506231731 | 72 | 280 | 8.0 | 29.0 | 0.00 | 0.00 | 0.00 | 15 | |
| 20260506231051 | 72 | 244 | 13.0 | 29.0 | 0.00 | 0.00 | 0.00 | 17 | |
| 20260506230411 | 72 | 257 | 9.0 | 18.0 | 0.00 | 0.00 | 0.00 | 17 | |
| 20260506225731 | 71 | 263 | 6.0 | 18.0 | 0.00 | 0.00 | 0.00 | 16 | |
| 20260506224411 | 71 | 269 | 9.0 | 15.0 | 0.00 | 0.00 | 0.00 | 17 |